createdAt,value
2017-06-09T00:00:14.224Z,44.70
2017-06-09T00:02:42.568Z,45.60
2017-06-09T00:05:10.105Z,45.60
2017-06-09T00:07:37.685Z,45.00
2017-06-09T00:10:05.248Z,45.20
2017-06-09T00:12:32.802Z,45.20
2017-06-09T00:15:00.320Z,44.90
2017-06-09T00:17:27.875Z,44.80
2017-06-09T00:19:55.393Z,44.50
2017-06-09T00:22:22.926Z,44.90
2017-06-09T00:24:50.468Z,44.80
2017-06-09T00:27:17.986Z,45.00
2017-06-09T00:29:45.486Z,44.90
2017-06-09T00:32:13.027Z,45.50
2017-06-09T00:34:41.337Z,45.30
2017-06-09T00:37:08.885Z,45.20
2017-06-09T00:39:36.405Z,44.80
2017-06-09T00:42:04.718Z,44.90
2017-06-09T00:44:32.236Z,44.90
2017-06-09T00:46:59.779Z,45.30
2017-06-09T00:49:27.278Z,45.40
2017-06-09T00:51:54.822Z,45.10
2017-06-09T00:54:23.095Z,45.60
2017-06-09T00:56:50.650Z,45.60
2017-06-09T00:59:18.992Z,45.60
2017-06-09T01:01:46.522Z,45.50
2017-06-09T01:04:14.122Z,45.70
2017-06-09T01:06:41.652Z,45.60
2017-06-09T01:09:09.156Z,46.10
2017-06-09T01:11:36.687Z,46.20
2017-06-09T01:14:04.227Z,45.80
2017-06-09T01:16:31.824Z,45.50
2017-06-09T01:18:59.377Z,45.30
2017-06-09T01:21:26.926Z,44.90
2017-06-09T01:23:54.479Z,44.80
2017-06-09T01:26:22.054Z,44.60
2017-06-09T01:28:49.599Z,44.50
2017-06-09T01:31:17.185Z,43.90
2017-06-09T01:33:44.720Z,43.70
2017-06-09T01:36:12.268Z,43.40
2017-06-09T01:38:39.823Z,43.10
2017-06-09T01:41:07.352Z,42.90
2017-06-09T01:43:34.884Z,42.70
2017-06-09T01:46:02.404Z,42.50
2017-06-09T01:48:29.998Z,42.10
2017-06-09T01:50:57.534Z,41.90
2017-06-09T01:53:25.065Z,41.70
2017-06-09T01:55:53.375Z,42.10
2017-06-09T01:58:20.998Z,42.10
2017-06-09T02:00:48.570Z,42.30
2017-06-09T02:03:16.123Z,42.30
2017-06-09T02:05:44.445Z,42.00
2017-06-09T02:08:12.006Z,41.90
2017-06-09T02:10:39.572Z,42.00
2017-06-09T02:13:07.104Z,42.30
2017-06-09T02:15:34.637Z,42.60
2017-06-09T02:18:02.988Z,42.60
2017-06-09T02:20:30.499Z,42.60
2017-06-09T02:22:58.031Z,42.70
2017-06-09T02:25:26.348Z,42.80
2017-06-09T02:27:53.905Z,42.80
2017-06-09T02:30:21.426Z,42.80
2017-06-09T02:32:48.983Z,42.80
2017-06-09T02:35:17.274Z,42.50
2017-06-09T02:37:45.575Z,42.90
2017-06-09T02:40:13.112Z,42.90
2017-06-09T02:42:41.408Z,42.80
2017-06-09T02:45:08.912Z,42.80
2017-06-09T02:47:36.491Z,42.70
2017-06-09T02:50:04.020Z,42.30
2017-06-09T02:52:31.559Z,42.70
2017-06-09T02:54:59.099Z,42.70
2017-06-09T02:57:26.634Z,42.70
2017-06-09T02:59:54.954Z,43.30
2017-06-09T03:02:22.504Z,43.30
2017-06-09T03:04:50.045Z,43.40
2017-06-09T03:07:18.375Z,42.70
2017-06-09T03:09:45.904Z,42.70
2017-06-09T03:12:13.447Z,42.90
2017-06-09T03:14:41.753Z,43.10
2017-06-09T03:17:09.318Z,43.10
2017-06-09T03:19:37.785Z,43.00
2017-06-09T03:22:05.335Z,43.10
2017-06-09T03:24:32.859Z,43.10
2017-06-09T03:27:00.388Z,43.20
2017-06-09T03:29:27.910Z,43.40
2017-06-09T03:32:14.175Z,43.30
2017-06-09T03:34:41.680Z,43.30
2017-06-09T03:37:09.275Z,43.20
2017-06-09T03:39:36.778Z,43.40
2017-06-09T03:42:05.059Z,43.10
2017-06-09T03:44:32.600Z,43.10
2017-06-09T03:47:00.874Z,43.80
2017-06-09T03:49:28.475Z,43.20
2017-06-09T03:51:56.023Z,42.50
2017-06-09T03:54:23.579Z,42.10
2017-06-09T03:56:51.095Z,42.10
2017-06-09T03:59:18.663Z,41.90
2017-06-09T04:01:46.198Z,41.60
2017-06-09T04:04:13.734Z,41.70
2017-06-09T04:06:41.241Z,41.70
2017-06-09T04:09:08.800Z,41.70
2017-06-09T04:11:36.332Z,41.90
2017-06-09T04:14:03.923Z,42.30
2017-06-09T04:16:31.434Z,41.90
2017-06-09T04:18:58.997Z,42.00
2017-06-09T04:21:26.514Z,42.20
2017-06-09T04:23:54.840Z,42.50
2017-06-09T04:26:22.396Z,41.90
2017-06-09T04:28:49.959Z,42.00
2017-06-09T04:31:17.515Z,41.90
2017-06-09T04:33:45.059Z,42.00
2017-06-09T04:36:12.600Z,41.80
2017-06-09T04:38:40.918Z,41.90
2017-06-09T04:41:08.434Z,41.90
2017-06-09T04:43:36.742Z,42.40
2017-06-09T04:46:04.304Z,42.30
2017-06-09T04:48:31.857Z,42.30
2017-06-09T04:50:59.370Z,42.40
2017-06-09T04:53:26.939Z,42.40
2017-06-09T04:55:54.465Z,42.20
2017-06-09T04:58:22.030Z,42.20
2017-06-09T05:00:49.560Z,42.00
2017-06-09T05:03:17.097Z,41.70
2017-06-09T05:05:44.613Z,41.50
2017-06-09T05:08:12.149Z,41.40
2017-06-09T05:10:39.661Z,41.40
2017-06-09T05:13:07.200Z,41.20
2017-06-09T05:15:34.725Z,41.20
2017-06-09T05:18:02.262Z,41.10
2017-06-09T05:20:29.824Z,41.30
2017-06-09T05:22:57.334Z,40.90
2017-06-09T05:25:24.898Z,40.80
2017-06-09T05:27:52.429Z,40.70
2017-06-09T05:30:19.984Z,40.50
2017-06-09T05:32:47.556Z,40.40
2017-06-09T05:35:15.088Z,40.70
2017-06-09T05:37:42.614Z,40.50
2017-06-09T05:40:10.189Z,40.40
2017-06-09T05:42:37.743Z,40.60
2017-06-09T05:45:06.054Z,40.60
2017-06-09T05:47:33.640Z,40.60
2017-06-09T05:50:01.203Z,40.50
2017-06-09T05:52:28.770Z,40.50
2017-06-09T05:54:56.350Z,40.80
2017-06-09T05:57:24.687Z,40.70
2017-06-09T05:59:52.238Z,41.10
2017-06-09T06:02:19.811Z,41.40
2017-06-09T06:04:47.363Z,41.10
2017-06-09T06:07:14.906Z,40.50
2017-06-09T06:09:42.466Z,40.20
2017-06-09T06:12:10.042Z,40.10
2017-06-09T06:14:37.584Z,39.60
2017-06-09T06:17:05.129Z,39.90
2017-06-09T06:19:32.694Z,39.90
2017-06-09T06:22:00.264Z,39.80
2017-06-09T06:24:27.803Z,38.80
2017-06-09T06:26:56.141Z,37.50
2017-06-09T06:29:23.718Z,37.50
2017-06-09T06:31:51.272Z,37.90
2017-06-09T06:34:18.827Z,37.70
2017-06-09T06:36:46.360Z,38.30
2017-06-09T06:39:13.922Z,39.20
2017-06-09T06:41:41.460Z,37.80
2017-06-09T06:44:09.027Z,36.30
2017-06-09T06:46:36.555Z,37.20
2017-06-09T06:49:04.868Z,36.10
2017-06-09T06:51:32.426Z,36.10
2017-06-09T06:53:59.939Z,36.20
2017-06-09T06:56:27.545Z,36.00
2017-06-09T06:58:55.066Z,37.50
2017-06-09T07:01:22.632Z,35.60
2017-06-09T07:03:50.164Z,35.70
2017-06-09T07:06:17.753Z,35.00
2017-06-09T07:08:45.258Z,34.70
2017-06-09T07:11:12.785Z,35.20
2017-06-09T07:13:40.316Z,35.00
2017-06-09T07:16:07.912Z,32.40
2017-06-09T07:18:35.461Z,32.40
2017-06-09T07:21:07.081Z,31.70
2017-06-09T07:23:34.605Z,32.40
2017-06-09T07:26:02.142Z,32.80
2017-06-09T07:28:29.683Z,31.70
2017-06-09T07:30:58.007Z,31.90
2017-06-09T07:33:25.518Z,31.40
2017-06-09T07:35:53.849Z,32.10
2017-06-09T07:38:21.370Z,32.10
2017-06-09T07:40:49.688Z,33.30
2017-06-09T07:43:17.217Z,33.30
2017-06-09T07:45:44.750Z,33.70
2017-06-09T07:48:12.295Z,34.50
2017-06-09T07:50:39.882Z,34.60
2017-06-09T07:53:08.194Z,33.90
2017-06-09T07:55:35.732Z,33.90
2017-06-09T07:58:03.266Z,34.20
2017-06-09T08:00:30.811Z,34.90
2017-06-09T08:02:58.320Z,35.50
2017-06-09T08:05:25.864Z,34.70
2017-06-09T08:07:54.187Z,34.70
2017-06-09T08:10:21.748Z,34.70
2017-06-09T08:12:49.280Z,35.00
2017-06-09T08:15:16.861Z,35.20
2017-06-09T08:17:44.399Z,35.70
2017-06-09T08:20:11.929Z,35.90
2017-06-09T08:22:39.464Z,35.80
2017-06-09T08:25:07.500Z,36.50
2017-06-09T08:27:35.037Z,36.90
2017-06-09T08:30:02.600Z,37.70
2017-06-09T08:32:30.146Z,38.30
2017-06-09T08:34:57.691Z,39.40
2017-06-09T08:37:25.215Z,40.10
2017-06-09T08:39:52.706Z,40.10
2017-06-09T08:42:20.253Z,40.30
2017-06-09T08:44:47.779Z,40.40
2017-06-09T08:47:15.318Z,40.60
2017-06-09T08:49:42.846Z,42.40
2017-06-09T08:52:10.398Z,41.80
2017-06-09T08:54:37.940Z,41.40
2017-06-09T08:57:05.514Z,41.40
2017-06-09T08:59:33.082Z,42.00
2017-06-09T09:02:00.640Z,40.90
2017-06-09T09:04:28.183Z,40.90
2017-06-09T09:06:55.723Z,43.20
2017-06-09T09:09:23.264Z,42.20
2017-06-09T09:11:50.827Z,43.00
2017-06-09T09:14:18.432Z,43.70
2017-06-09T09:16:45.983Z,45.00
2017-06-09T09:19:13.534Z,44.80
2017-06-09T09:21:41.063Z,44.50
2017-06-09T09:24:08.586Z,43.70
2017-06-09T09:26:36.129Z,43.00
2017-06-09T09:29:03.638Z,45.20
2017-06-09T09:31:31.203Z,43.80
2017-06-09T09:33:58.719Z,44.40
2017-06-09T09:36:26.256Z,45.70
2017-06-09T09:38:53.766Z,45.30
2017-06-09T09:41:21.317Z,45.70
2017-06-09T09:43:49.627Z,48.40
2017-06-09T09:46:17.163Z,48.10
2017-06-09T09:48:44.702Z,47.40
2017-06-09T09:51:12.248Z,50.10
2017-06-09T09:53:39.790Z,49.00
2017-06-09T09:56:07.361Z,49.90
2017-06-09T09:58:34.907Z,50.10
2017-06-09T10:01:02.494Z,52.60
2017-06-09T10:03:30.055Z,51.80
2017-06-09T10:05:57.599Z,52.80
2017-06-09T10:08:25.947Z,53.70
2017-06-09T10:10:53.469Z,54.00
2017-06-09T10:13:21.061Z,53.50
2017-06-09T10:15:48.628Z,52.20
2017-06-09T10:18:16.180Z,52.80
2017-06-09T10:20:43.742Z,51.30
2017-06-09T10:23:11.305Z,51.70
2017-06-09T10:25:38.865Z,52.70
2017-06-09T10:28:06.427Z,53.80
2017-06-09T10:30:34.005Z,54.10
2017-06-09T10:33:01.558Z,56.70
2017-06-09T10:35:29.128Z,57.20
2017-06-09T10:37:56.660Z,58.10
2017-06-09T10:40:24.162Z,60.80
2017-06-09T10:42:51.688Z,59.50
2017-06-09T10:45:19.236Z,59.20
2017-06-09T10:47:46.770Z,62.60
2017-06-09T10:50:15.053Z,63.40
2017-06-09T10:52:42.637Z,63.30
2017-06-09T10:55:10.143Z,63.60
2017-06-09T10:57:37.770Z,61.10
2017-06-09T11:00:05.319Z,63.00
2017-06-09T11:02:32.886Z,61.40
2017-06-09T11:05:00.416Z,63.40
2017-06-09T11:07:28.768Z,63.60
2017-06-09T11:09:56.290Z,63.50
2017-06-09T11:12:23.840Z,62.40
2017-06-09T11:14:51.385Z,62.60
2017-06-09T11:17:18.914Z,64.40
2017-06-09T11:19:46.433Z,63.70
2017-06-09T11:22:13.982Z,65.30
2017-06-09T11:24:41.526Z,66.70
2017-06-09T11:27:09.067Z,68.90
2017-06-09T11:29:37.355Z,68.60
2017-06-09T11:32:04.941Z,68.60
2017-06-09T11:34:32.454Z,67.10
2017-06-09T11:37:00.738Z,65.80
2017-06-09T11:39:28.332Z,66.10
2017-06-09T11:41:55.862Z,65.70
2017-06-09T11:44:24.138Z,65.10
2017-06-09T11:46:52.482Z,58.30
2017-06-09T11:49:20.017Z,58.30
2017-06-09T11:51:47.542Z,59.50
2017-06-09T11:54:15.103Z,59.30
2017-06-09T11:56:42.636Z,58.30
2017-06-09T11:59:10.929Z,58.30
2017-06-09T12:01:38.475Z,58.30
2017-06-09T12:04:06.091Z,58.00
2017-06-09T12:06:33.663Z,55.60
2017-06-09T12:09:01.255Z,56.20
2017-06-09T12:11:29.604Z,54.90
2017-06-09T12:13:57.202Z,55.10
2017-06-09T12:16:25.502Z,58.10
2017-06-09T12:18:53.222Z,58.10
2017-06-09T12:21:21.526Z,57.90
2017-06-09T12:23:49.852Z,58.20
2017-06-09T12:26:17.369Z,58.10
2017-06-09T12:28:45.674Z,61.60
2017-06-09T12:31:13.215Z,61.60
2017-06-09T12:33:40.755Z,59.70
2017-06-09T12:36:09.026Z,59.00
2017-06-09T12:38:37.367Z,59.10
2017-06-09T12:41:04.928Z,59.10
2017-06-09T12:43:32.743Z,58.10
2017-06-09T12:46:00.346Z,57.60
2017-06-09T12:48:28.266Z,57.40
2017-06-09T12:50:55.791Z,58.80
2017-06-09T12:53:23.422Z,58.20
2017-06-09T12:55:50.985Z,57.90
2017-06-09T12:58:18.603Z,56.80
2017-06-09T13:00:46.163Z,57.90
2017-06-09T13:03:13.728Z,58.40
2017-06-09T13:05:41.275Z,56.60
2017-06-09T13:08:09.612Z,53.60
2017-06-09T13:10:37.130Z,53.70
2017-06-09T13:13:05.450Z,50.20
2017-06-09T13:15:32.971Z,50.20
2017-06-09T13:18:01.298Z,51.60
2017-06-09T13:20:28.837Z,51.60
2017-06-09T13:22:56.367Z,53.30
2017-06-09T13:25:24.681Z,52.50
2017-06-09T13:27:52.219Z,52.40
2017-06-09T13:30:19.750Z,51.50
2017-06-09T13:32:48.043Z,51.30
2017-06-09T13:35:15.599Z,51.20
2017-06-09T13:37:43.172Z,51.00
2017-06-09T13:40:11.503Z,50.50
2017-06-09T13:42:39.057Z,50.50
2017-06-09T13:45:06.651Z,49.60
2017-06-09T13:47:34.956Z,50.80
2017-06-09T13:50:02.496Z,50.80
2017-06-09T13:52:30.054Z,52.90
2017-06-09T13:54:58.360Z,49.50
2017-06-09T13:57:25.891Z,49.40
2017-06-09T13:59:54.231Z,50.40
2017-06-09T14:02:21.791Z,49.80
2017-06-09T14:04:49.361Z,49.40
2017-06-09T14:07:16.867Z,47.80
2017-06-09T14:09:44.401Z,47.60
2017-06-09T14:12:11.910Z,46.80
2017-06-09T14:14:39.463Z,46.10
2017-06-09T14:17:06.987Z,46.20
2017-06-09T14:19:34.521Z,46.40
2017-06-09T14:22:02.075Z,44.40
2017-06-09T14:24:29.595Z,45.60
2017-06-09T14:26:57.111Z,45.50
2017-06-09T14:29:24.663Z,47.00
2017-06-09T14:31:52.213Z,48.20
2017-06-09T14:34:19.761Z,48.30
2017-06-09T14:36:47.326Z,48.80
2017-06-09T14:39:14.851Z,46.80
2017-06-09T14:41:42.371Z,46.60
2017-06-09T14:44:09.926Z,46.50
2017-06-09T14:46:37.478Z,44.70
2017-06-09T14:49:05.022Z,46.60
2017-06-09T14:51:32.548Z,46.70
2017-06-09T14:54:00.087Z,47.30
2017-06-09T14:56:27.611Z,47.30
2017-06-09T14:58:55.164Z,47.70
2017-06-09T15:01:22.688Z,51.90
2017-06-09T15:03:50.229Z,57.80
2017-06-09T15:06:17.761Z,53.60
2017-06-09T15:08:45.299Z,54.30
2017-06-09T15:11:12.859Z,49.30
2017-06-09T15:13:40.410Z,50.80
2017-06-09T15:16:07.976Z,49.70
2017-06-09T15:18:35.548Z,49.00
2017-06-09T15:21:03.098Z,48.20
2017-06-09T15:23:30.636Z,48.10
2017-06-09T15:25:58.166Z,44.50
2017-06-09T15:28:26.445Z,42.50
2017-06-09T15:30:54.003Z,42.40
2017-06-09T15:33:21.548Z,42.50
2017-06-09T15:35:49.863Z,41.50
2017-06-09T15:38:17.380Z,41.40
2017-06-09T15:40:44.924Z,41.70
2017-06-09T15:43:12.491Z,44.80
2017-06-09T15:45:40.043Z,41.60
2017-06-09T15:48:07.558Z,40.60
2017-06-09T15:50:35.186Z,37.80
2017-06-09T15:53:02.754Z,38.50
2017-06-09T15:55:31.075Z,34.80
2017-06-09T15:57:58.603Z,34.30
2017-06-09T16:00:26.150Z,36.90
2017-06-09T16:02:53.683Z,35.70
2017-06-09T16:05:21.201Z,35.50
2017-06-09T16:07:48.741Z,35.50
2017-06-09T16:10:16.297Z,32.60
2017-06-09T16:12:44.571Z,35.00
2017-06-09T16:15:12.114Z,35.00
2017-06-09T16:17:39.632Z,35.80
2017-06-09T16:20:07.195Z,35.20
2017-06-09T16:22:34.714Z,36.30
2017-06-09T16:25:03.066Z,35.90
2017-06-09T16:27:30.602Z,35.90
2017-06-09T16:29:58.170Z,36.60
2017-06-09T16:32:25.708Z,34.50
2017-06-09T16:34:53.263Z,36.70
2017-06-09T16:37:20.773Z,36.50
2017-06-09T16:39:48.316Z,35.20
2017-06-09T16:42:16.649Z,36.70
2017-06-09T16:44:44.221Z,36.20
2017-06-09T16:47:11.775Z,35.80
2017-06-09T16:49:39.324Z,35.90
2017-06-09T16:52:06.899Z,35.50
2017-06-09T16:54:34.446Z,35.90
2017-06-09T16:57:02.020Z,34.80
2017-06-09T16:59:29.575Z,35.60
2017-06-09T17:01:57.117Z,34.70
2017-06-09T17:04:24.639Z,36.30
2017-06-09T17:06:52.166Z,34.90
2017-06-09T17:09:19.735Z,34.80
2017-06-09T17:11:47.267Z,34.70
2017-06-09T17:14:14.804Z,34.90
2017-06-09T17:16:43.193Z,32.70
2017-06-09T17:19:10.755Z,32.60
2017-06-09T17:21:38.329Z,34.70
2017-06-09T17:24:05.904Z,33.60
2017-06-09T17:26:33.471Z,34.30
2017-06-09T17:29:01.011Z,33.70
2017-06-09T17:31:28.533Z,34.60
2017-06-09T17:33:56.063Z,34.20
2017-06-09T17:36:23.624Z,35.30
2017-06-09T17:38:51.175Z,34.70
2017-06-09T17:41:18.722Z,35.50
2017-06-09T17:43:46.240Z,34.60
2017-06-09T17:46:13.782Z,36.10
2017-06-09T17:48:41.335Z,36.60
2017-06-09T17:51:08.872Z,36.40
2017-06-09T17:53:36.448Z,35.90
2017-06-09T17:56:04.015Z,34.90
2017-06-09T17:58:31.535Z,36.20
2017-06-09T18:00:59.072Z,36.60
2017-06-09T18:03:26.603Z,34.90
2017-06-09T18:05:54.903Z,36.90
2017-06-09T18:08:22.471Z,36.20
2017-06-09T18:10:50.034Z,35.70
2017-06-09T18:13:17.599Z,36.00
2017-06-09T18:15:45.150Z,36.30
2017-06-09T18:18:12.704Z,36.30
2017-06-09T18:20:40.285Z,37.20
2017-06-09T18:23:07.811Z,37.30
2017-06-09T18:25:36.131Z,37.30
2017-06-09T18:28:03.690Z,37.20
2017-06-09T18:30:32.152Z,36.80
2017-06-09T18:32:59.685Z,37.30
2017-06-09T18:35:27.995Z,37.00
2017-06-09T18:37:55.527Z,37.00
2017-06-09T18:40:23.811Z,37.40
2017-06-09T18:42:51.395Z,37.30
2017-06-09T18:45:18.974Z,37.60
2017-06-09T18:47:46.536Z,37.40
2017-06-09T18:50:14.109Z,37.20
2017-06-09T18:52:41.672Z,37.40
2017-06-09T18:55:09.228Z,37.50
2017-06-09T18:57:36.782Z,38.10
2017-06-09T19:00:04.346Z,37.40
2017-06-09T19:02:31.943Z,38.20
2017-06-09T19:05:00.234Z,38.40
2017-06-09T19:07:27.791Z,38.40
2017-06-09T19:09:56.084Z,38.50
2017-06-09T19:12:23.684Z,38.40
2017-06-09T19:14:51.214Z,38.40
2017-06-09T19:17:18.757Z,39.60
2017-06-09T19:19:46.284Z,38.90
2017-06-09T19:22:13.844Z,38.40
2017-06-09T19:24:41.366Z,38.80
2017-06-09T19:27:08.955Z,39.60
2017-06-09T19:29:36.553Z,39.10
2017-06-09T19:32:04.876Z,40.20
2017-06-09T19:34:32.429Z,40.00
2017-06-09T19:36:59.990Z,39.60
2017-06-09T19:39:27.577Z,40.70
2017-06-09T19:41:55.128Z,39.60
2017-06-09T19:44:22.706Z,41.50
2017-06-09T19:46:50.252Z,41.00
2017-06-09T19:49:17.804Z,40.90
2017-06-09T19:51:45.341Z,40.50
2017-06-09T19:54:12.927Z,40.60
2017-06-09T19:56:40.763Z,41.40
2017-06-09T19:59:08.270Z,42.50
2017-06-09T20:01:35.778Z,43.00
2017-06-09T20:04:03.371Z,42.90
2017-06-09T20:06:30.907Z,42.80
2017-06-09T20:08:58.462Z,43.00
2017-06-09T20:11:25.977Z,42.60
2017-06-09T20:13:53.573Z,43.60
2017-06-09T20:16:21.147Z,43.90
2017-06-09T20:18:48.691Z,42.70
2017-06-09T20:21:16.229Z,44.20
2017-06-09T20:23:44.588Z,44.40
2017-06-09T20:26:12.105Z,44.30
2017-06-09T20:28:39.676Z,44.50
2017-06-09T20:31:07.215Z,45.00
2017-06-09T20:33:34.780Z,45.20
2017-06-09T20:36:02.288Z,45.70
2017-06-09T20:38:29.846Z,45.60
2017-06-09T20:40:57.395Z,45.60
2017-06-09T20:43:24.929Z,45.00
2017-06-09T20:45:52.488Z,45.10
2017-06-09T20:48:20.063Z,44.90
2017-06-09T20:50:47.571Z,44.60
2017-06-09T20:53:15.873Z,46.70
2017-06-09T20:55:43.414Z,46.60
2017-06-09T20:58:10.981Z,46.00
2017-06-09T21:00:38.519Z,46.50
2017-06-09T21:03:06.084Z,46.10
2017-06-09T21:05:33.635Z,45.80
2017-06-09T21:08:01.961Z,46.70
2017-06-09T21:10:29.476Z,46.00
2017-06-09T21:12:57.800Z,46.60
2017-06-09T21:15:25.325Z,46.50
2017-06-09T21:17:53.645Z,46.90
2017-06-09T21:20:21.154Z,46.90
2017-06-09T21:22:49.464Z,46.80
2017-06-09T21:25:16.983Z,46.70
2017-06-09T21:27:45.358Z,48.20
2017-06-09T21:30:13.652Z,47.10
2017-06-09T21:32:41.943Z,48.40
2017-06-09T21:35:09.492Z,48.40
2017-06-09T21:37:37.032Z,47.20
2017-06-09T21:40:04.558Z,47.10
2017-06-09T21:42:32.122Z,47.20
2017-06-09T21:44:59.709Z,47.70
2017-06-09T21:47:27.228Z,48.00
2017-06-09T21:49:54.770Z,48.40
2017-06-09T21:52:22.299Z,47.90
2017-06-09T21:54:49.841Z,48.40
2017-06-09T21:57:17.361Z,48.40
2017-06-09T21:59:44.886Z,47.20
2017-06-09T22:02:13.156Z,48.10
2017-06-09T22:04:41.491Z,48.40
2017-06-09T22:07:09.004Z,48.30
2017-06-09T22:09:37.311Z,47.60
2017-06-09T22:12:04.848Z,47.60
2017-06-09T22:14:32.382Z,47.90
2017-06-09T22:17:00.669Z,47.30
2017-06-09T22:19:28.998Z,47.70
2017-06-09T22:21:56.552Z,47.60
2017-06-09T22:24:24.125Z,47.40
2017-06-09T22:26:51.650Z,47.50
2017-06-09T22:29:19.218Z,47.90
2017-06-09T22:31:46.733Z,48.00
2017-06-09T22:34:14.290Z,48.10
2017-06-09T22:36:41.810Z,48.30
2017-06-09T22:39:09.370Z,48.30
2017-06-09T22:41:36.922Z,48.60
2017-06-09T22:44:04.526Z,48.50
2017-06-09T22:46:32.856Z,48.90
2017-06-09T22:49:00.421Z,48.20
2017-06-09T22:51:27.981Z,48.10
2017-06-09T22:53:55.563Z,48.70
2017-06-09T22:56:23.092Z,48.60
2017-06-09T22:58:50.644Z,48.30
2017-06-09T23:01:18.153Z,48.00
2017-06-09T23:03:45.695Z,47.80
2017-06-09T23:06:13.248Z,47.90
2017-06-09T23:08:40.810Z,48.00
2017-06-09T23:11:08.341Z,49.30
2017-06-09T23:13:35.901Z,47.80
2017-06-09T23:16:03.470Z,47.90
2017-06-09T23:18:31.060Z,48.50
2017-06-09T23:20:58.592Z,48.40
2017-06-09T23:23:26.139Z,48.40
2017-06-09T23:25:53.683Z,48.80
2017-06-09T23:28:21.241Z,48.80
2017-06-09T23:30:49.582Z,48.40
2017-06-09T23:33:18.010Z,48.30
2017-06-09T23:35:45.565Z,48.20
2017-06-09T23:38:13.112Z,48.60
2017-06-09T23:40:41.449Z,48.20
2017-06-09T23:43:08.967Z,48.30
2017-06-09T23:45:36.507Z,48.80
2017-06-09T23:48:04.843Z,48.30
2017-06-09T23:50:32.370Z,48.10
2017-06-09T23:52:59.890Z,48.70
2017-06-09T23:55:27.451Z,49.40
2017-06-09T23:57:55.807Z,48.80
